Fuji Maru — JD2030 — position and weather

sailwx.info

Track history (hours):
 
Tides and Currents Weather Stations Pressure Air Temp Water Temp Dewpoint Dewpoint Depression Visibility Wind Speed Wind Dir Waves Ship Positions

Fuji Maru

Last reported at 2017-Mar-23 19:06 UTC. Time now 2017-Mar-23 20:22 UTC.
Position N 35°39' E 139°46'.

Length 38 m; draft 4.4 m.

Type: Tug. MMSI: 431001102.

Date/timePositionNaut miles runAvg speedWind from/ knotsBaromVisibWave heightAir tempDewpointWater temp
2017-Mar-23 19:06N 35°39' E 139°46'0 0.0
2017-Mar-23 18:33N 35°39' E 139°46'0 0.0
2017-Mar-23 17:28N 35°39' E 139°46'0 0.0
2017-Mar-23 16:26N 35°39' E 139°46'0 0.0
2017-Mar-23 15:28N 35°39' E 139°46'0 0.0
2017-Mar-23 14:23N 35°39' E 139°46'0 0.0
2017-Mar-23 13:33N 35°39' E 139°46'0 0.0
2017-Mar-23 12:33N 35°39' E 139°46'0 0.0
2017-Mar-23 11:32N 35°39' E 139°46'0 0.0
2017-Mar-23 10:33N 35°39' E 139°46'0 0.0
2017-Mar-23 09:33N 35°39' E 139°46'0 0.0
2017-Mar-23 08:33N 35°39' E 139°46'0 0.0
2017-Mar-23 07:33N 35°39' E 139°46'3 2.7
2017-Mar-23 06:33N 35°36' E 139°46'1 0.7
2017-Mar-23 05:33N 35°36' E 139°47'3 3.1
2017-Mar-23 04:29N 35°39' E 139°46'0 0.0
2017-Mar-23 03:33N 35°39' E 139°46'0 0.0
2017-Mar-23 02:33N 35°39' E 139°46'0 0.0
2017-Mar-23 01:33N 35°39' E 139°46'0 0.0
2017-Mar-23 00:33N 35°39' E 139°46'0 0.0
2017-Mar-22 23:33N 35°39' E 139°46'0 0.0
2017-Mar-22 22:33N 35°39' E 139°46'0 0.0
2017-Mar-22 21:25N 35°39' E 139°46'0 0.0
2017-Mar-22 20:33N 35°39' E 139°46'0 0.0
2017-Mar-22 19:33N 35°39' E 139°46'0 0.0
2017-Mar-22 18:33N 35°39' E 139°46'0 0.0
2017-Mar-22 17:33N 35°39' E 139°46'0 0.0
2017-Mar-22 16:33N 35°39' E 139°46'0 0.0
2017-Mar-22 15:33N 35°39' E 139°46'0 0.0
2017-Mar-22 14:33N 35°39' E 139°46'0 0.0
2017-Mar-22 13:11N 35°39' E 139°46'0 0.0
2017-Mar-22 12:06N 35°39' E 139°46'0 0.0
2017-Mar-22 11:04N 35°39' E 139°46'0 0.0
2017-Mar-22 10:32N 35°39' E 139°46'3 2.6
2017-Mar-22 09:33N 35°36' E 139°46'2 2.1
2017-Mar-22 08:33N 35°35' E 139°48'1 1.4
2017-Mar-22 07:33N 35°36' E 139°47'1 0.6
2017-Mar-22 06:33N 35°36' E 139°46'0 0.3
2017-Mar-22 05:33N 35°36' E 139°46'2 2.3
2017-Mar-22 04:30N 35°39' E 139°46'0 0.0
2017-Mar-22 03:25N 35°39' E 139°46'0 0.0
2017-Mar-22 02:21N 35°39' E 139°46'0 0.0
2017-Mar-22 01:09N 35°39' E 139°46'0 0.0
2017-Mar-22 00:33N 35°39' E 139°46'0 0.0
2017-Mar-21 23:33N 35°39' E 139°46'2 2.3
2017-Mar-21 22:33N 35°37' E 139°46'3 3.0
2017-Mar-21 21:34N 35°34' E 139°48'3 2.9
2017-Mar-21 20:33N 35°37' E 139°46'1 1.2
2017-Mar-21 19:34N 35°36' E 139°47'3 0.3
2017-Mar-21 10:24N 35°39' E 139°46'0 0.0
2017-Mar-21 09:32N 35°39' E 139°46'0 0.0
2017-Mar-21 08:28N 35°39' E 139°46'0 0.0
2017-Mar-21 07:20N 35°39' E 139°46'0 0.0
2017-Mar-21 06:33N 35°39' E 139°46'0 0.0
2017-Mar-21 05:23N 35°39' E 139°46'2 3.0
2017-Mar-21 04:33N 35°36' E 139°46'3 3.0
2017-Mar-21 03:33N 35°34' E 139°49'5 3.9
2017-Mar-21 02:14N 35°39' E 139°46'0 0.0
2017-Mar-21 01:33N 35°39' E 139°46'0 0.0
2017-Mar-21 00:33N 35°39' E 139°46'0 0.0
2017-Mar-20 23:25N 35°39' E 139°46'0 0.0
2017-Mar-20 22:31N 35°39' E 139°46'0 0.0
2017-Mar-20 21:33N 35°39' E 139°46'0 0.0
2017-Mar-20 20:33N 35°39' E 139°46'0 0.0
2017-Mar-20 19:32N 35°39' E 139°46'0 0.0
2017-Mar-20 18:33N 35°39' E 139°46'0 0.0
2017-Mar-20 17:33N 35°39' E 139°46'0 0.0
2017-Mar-20 16:33N 35°39' E 139°46'0 0.0
2017-Mar-20 15:33N 35°39' E 139°46'0 0.0
2017-Mar-20 14:33N 35°39' E 139°46'0 0.0
2017-Mar-20 13:33N 35°39' E 139°46'0 0.0
2017-Mar-20 12:33N 35°39' E 139°46'0 0.0
2017-Mar-20 11:33N 35°39' E 139°46'3 3.2
2017-Mar-20 10:33N 35°36' E 139°47'1 1.5
2017-Mar-20 09:33N 35°35' E 139°48'2 2.4
2017-Mar-20 08:34N 35°36' E 139°46'2 2.3
2017-Mar-20 07:30N 35°39' E 139°46'0 0.0
2017-Mar-20 06:33N 35°39' E 139°46'0 0.0
2017-Mar-20 05:31N 35°39' E 139°46'0 0.0
2017-Mar-20 04:33N 35°39' E 139°46'0 0.0
2017-Mar-20 03:33N 35°39' E 139°46'3 2.7
2017-Mar-20 02:33N 35°36' E 139°46'1 0.9
2017-Mar-20 01:33N 35°35' E 139°47'3 3.5
2017-Mar-20 00:33N 35°39' E 139°46'0 0.0
2017-Mar-19 23:33N 35°39' E 139°46'0 0.0
2017-Mar-19 22:33N 35°39' E 139°46'0 0.0
2017-Mar-19 21:33N 35°39' E 139°46'0 0.0
2017-Mar-19 20:33N 35°39' E 139°46'0 0.0
2017-Mar-19 19:33N 35°39' E 139°46'0 0.0
2017-Mar-19 18:33N 35°39' E 139°46'0 0.0
2017-Mar-19 17:33N 35°39' E 139°46'0 0.0
2017-Mar-19 16:33N 35°39' E 139°46'0 0.0
2017-Mar-19 15:33N 35°39' E 139°46'0 0.0
2017-Mar-19 14:33N 35°39' E 139°46'0 0.0
2017-Mar-19 13:33N 35°39' E 139°46'0 0.0
2017-Mar-19 12:33N 35°39' E 139°46'0 0.0
2017-Mar-19 11:33N 35°39' E 139°46'0 0.0
2017-Mar-19 10:33N 35°39' E 139°46'4 3.5
2017-Mar-19 09:33N 35°36' E 139°47'1 1.5
2017-Mar-19 08:33N 35°34' E 139°48'3 2.9
2017-Mar-19 07:33N 35°37' E 139°46'2 2.2
2017-Mar-19 06:32N 35°39' E 139°46'0 0.0
2017-Mar-19 05:32N 35°39' E 139°46'0 0.0
2017-Mar-19 04:32N 35°39' E 139°46'0 0.0
2017-Mar-19 03:33N 35°39' E 139°46'0 0.0
2017-Mar-19 02:33N 35°39' E 139°46'0 0.0
2017-Mar-19 01:32N 35°39' E 139°46'0 0.0
2017-Mar-19 00:33N 35°39' E 139°46'0 0.0
2017-Mar-18 23:33N 35°39' E 139°46'3 2.7
2017-Mar-18 22:33N 35°36' E 139°46'1 0.9
2017-Mar-18 21:33N 35°36' E 139°47'3 3.4
2017-Mar-18 20:33N 35°39' E 139°46'0 0.0
2017-Mar-18 19:33N 35°39' E 139°46'0 0.0
2017-Mar-18 18:33N 35°39' E 139°46'0 0.0
2017-Mar-18 17:30N 35°39' E 139°46'0 0.0
2017-Mar-18 15:31N 35°39' E 139°46'0 0.0
2017-Mar-18 13:32N 35°39' E 139°46'0 0.0
2017-Mar-18 12:30N 35°39' E 139°46'0 0.0
2017-Mar-18 11:31N 35°39' E 139°46'0 0.0
2017-Mar-18 10:10N 35°39' E 139°46'2 3.3
2017-Mar-18 09:33N 35°37' E 139°46'3 3.3
2017-Mar-18 08:33N 35°34' E 139°49'2 2.1
2017-Mar-18 07:33N 35°36' E 139°47'3 1.3
2017-Mar-18 05:06N 35°39' E 139°46'0 0.0
2017-Mar-18 03:26N 35°39' E 139°46'0 0.0
2017-Mar-18 02:29N 35°39' E 139°46'0 0.0
2017-Mar-18 01:18N 35°39' E 139°46'0 0.0
2017-Mar-18 00:27N 35°39' E 139°46'0 0.0
2017-Mar-17 23:30N 35°39' E 139°46'0 0.0
2017-Mar-17 22:33N 35°39' E 139°46'0 0.0
2017-Mar-17 21:33N 35°39' E 139°46'0 0.0
2017-Mar-17 20:31N 35°39' E 139°46'0 0.0
2017-Mar-17 19:26N 35°39' E 139°46'0 0.0
2017-Mar-17 18:32N 35°39' E 139°46'0 0.0
2017-Mar-17 17:32N 35°39' E 139°46'0 0.0
2017-Mar-17 16:33N 35°39' E 139°46'0 0.0
2017-Mar-17 15:30N 35°39' E 139°46'0 0.0
2017-Mar-17 14:11N 35°39' E 139°46'0 0.0
2017-Mar-17 13:31N 35°39' E 139°46'0 0.0
2017-Mar-17 12:33N 35°39' E 139°46'0 0.0
2017-Mar-17 11:29N 35°39' E 139°46'2 2.4
2017-Mar-17 10:33N 35°37' E 139°46'2 0.7
2017-Mar-17 08:20N 35°38' E 139°46'2 2.2
2017-Mar-17 07:33N 35°36' E 139°46'2 1.1
2017-Mar-17 05:21N 35°39' E 139°46'0 0.0
2017-Mar-17 04:33N 35°39' E 139°46'0 0.0
2017-Mar-17 03:33N 35°39' E 139°46'2 2.3
2017-Mar-17 02:33N 35°37' E 139°47'1 0.5
2017-Mar-17 01:33N 35°36' E 139°46'3 2.4
2017-Mar-17 00:24N 35°39' E 139°46'0 0.0
2017-Mar-16 23:33N 35°39' E 139°46'0 0.0
2017-Mar-16 22:31N 35°39' E 139°46'0 0.0
2017-Mar-16 21:30N 35°39' E 139°46'0 0.0
2017-Mar-16 18:33N 35°39' E 139°46'0 0.0
2017-Mar-16 17:31N 35°39' E 139°46'0 0.0
2017-Mar-16 16:33N 35°39' E 139°46'0 0.0
2017-Mar-16 15:33N 35°39' E 139°46'0 0.0
2017-Mar-16 14:30N 35°39' E 139°46'0 0.0
2017-Mar-16 13:32N 35°39' E 139°46'0 0.0
2017-Mar-16 12:33N 35°39' E 139°46'0 0.0
2017-Mar-16 11:33N 35°39' E 139°46'0 0.0
2017-Mar-16 10:33N 35°39' E 139°46'0 0.0
2017-Mar-16 09:33N 35°39' E 139°46'0 0.0
2017-Mar-16 08:33N 35°39' E 139°46'0 0.0
2017-Mar-16 07:33N 35°39' E 139°46'0 0.0
2017-Mar-16 06:33N 35°39' E 139°46'0 0.0
2017-Mar-16 05:33N 35°39' E 139°46'0 0.0
2017-Mar-16 04:29N 35°39' E 139°46'0 0.0
2017-Mar-16 03:30N 35°39' E 139°46'0 0.0
2017-Mar-16 02:28N 35°39' E 139°46'0 0.0
2017-Mar-16 01:33N 35°39' E 139°46'0 0.0
2017-Mar-16 00:33N 35°39' E 139°46'2 2.4
2017-Mar-15 23:33N 35°37' E 139°47'1 0.5
2017-Mar-15 22:33N 35°36' E 139°47'3 2.9
2017-Mar-15 21:33N 35°39' E 139°46'0 0.0
2017-Mar-15 20:33N 35°39' E 139°46'0 0.0
2017-Mar-15 19:33N 35°39' E 139°46'0 0.0
2017-Mar-15 18:33N 35°39' E 139°46'0 0.0
2017-Mar-15 17:33N 35°39' E 139°46'0 0.0
2017-Mar-15 16:33N 35°39' E 139°46'0 0.0
2017-Mar-15 15:33N 35°39' E 139°46'0 0.0
2017-Mar-15 11:32N 35°39' E 139°46'0 0.0
2017-Mar-15 10:33N 35°39' E 139°46'0 0.3
2017-Mar-15 09:33N 35°39' E 139°46'1 1.3
2017-Mar-15 08:33N 35°37' E 139°46'2 1.6
2017-Mar-15 07:33N 35°39' E 139°46'0 0.0
2017-Mar-15 06:33N 35°39' E 139°46'0 0.0
2017-Mar-15 05:33N 35°39' E 139°46'0 0.0
2017-Mar-15 04:33N 35°39' E 139°46'0 0.0
2017-Mar-15 03:33N 35°39' E 139°46'0 0.0
2017-Mar-15 02:33N 35°39' E 139°46'4 4.0
2017-Mar-15 01:33N 35°35' E 139°47'4 3.9
2017-Mar-15 00:33N 35°39' E 139°46'0 0.0
2017-Mar-14 23:33N 35°39' E 139°46'0 0.0
2017-Mar-14 22:33N 35°39' E 139°46'0 0.0
2017-Mar-14 21:33N 35°39' E 139°46'0 0.0
2017-Mar-14 20:33N 35°39' E 139°46'0 0.0
2017-Mar-14 19:33N 35°39' E 139°46'0 0.0
2017-Mar-14 18:33N 35°39' E 139°46'0 0.1
2017-Mar-14 17:33N 35°39' E 139°46'0 0.1
2017-Mar-14 16:33N 35°39' E 139°46'0 0.0
2017-Mar-14 15:33N 35°39' E 139°46'0 0.0
2017-Mar-14 14:33N 35°39' E 139°46'0 0.0
2017-Mar-14 13:33N 35°39' E 139°46'0 0.0
2017-Mar-14 12:33N 35°39' E 139°46'0 0.0
2017-Mar-14 11:33N 35°39' E 139°46'0 0.0
2017-Mar-14 10:33N 35°39' E 139°46'1 0.8
2017-Mar-14 09:33N 35°38' E 139°46'3 2.5
2017-Mar-14 08:33N 35°36' E 139°47'2 1.9
2017-Mar-14 07:33N 35°37' E 139°46'1 1.4
2017-Mar-14 06:33N 35°39' E 139°46'1 0.6
2017-Mar-14 05:33N 35°38' E 139°46'0 0.0
2017-Mar-14 04:33N 35°38' E 139°46'0 0.0
2017-Mar-14 03:33N 35°38' E 139°46'0 0.0
2017-Mar-14 02:33N 35°38' E 139°46'0 0.0
2017-Mar-14 01:32N 35°38' E 139°46'0 0.0
2017-Mar-14 00:33N 35°38' E 139°46'0 0.0
2017-Mar-13 23:33N 35°38' E 139°46'2 1.6
2017-Mar-13 22:33N 35°37' E 139°46'2 2.4
2017-Mar-13 21:33N 35°35' E 139°48'4 4.4
2017-Mar-13 20:33N 35°39' E 139°46'0 0.0
2017-Mar-13 19:33N 35°39' E 139°46'  
Track history (hours):
 
Tides and Currents Weather Stations Pressure Air Temp Water Temp Dewpoint Dewpoint Depression Visibility Wind Speed Wind Dir Waves Ship Positions

Fuji Maru

Last reported at 2017-Mar-23 19:06 UTC. Time now 2017-Mar-23 20:22 UTC.
Position N 35°39' E 139°46'.

Length 38 m; draft 4.4 m.

Type: Tug. MMSI: 431001102.

Date/timePositionNaut miles runAvg speedWind from/ knotsBaromVisibWave heightAir tempDewpointWater temp
2017-Mar-23 19:06N 35°39' E 139°46'0 0.0
2017-Mar-23 18:33N 35°39' E 139°46'0 0.0
2017-Mar-23 17:28N 35°39' E 139°46'0 0.0
2017-Mar-23 16:26N 35°39' E 139°46'0 0.0
2017-Mar-23 15:28N 35°39' E 139°46'0 0.0
2017-Mar-23 14:23N 35°39' E 139°46'0 0.0
2017-Mar-23 13:33N 35°39' E 139°46'0 0.0
2017-Mar-23 12:33N 35°39' E 139°46'0 0.0
2017-Mar-23 11:32N 35°39' E 139°46'0 0.0
2017-Mar-23 10:33N 35°39' E 139°46'0 0.0
2017-Mar-23 09:33N 35°39' E 139°46'0 0.0
2017-Mar-23 08:33N 35°39' E 139°46'0 0.0
2017-Mar-23 07:33N 35°39' E 139°46'3 2.7
2017-Mar-23 06:33N 35°36' E 139°46'1 0.7
2017-Mar-23 05:33N 35°36' E 139°47'3 3.1
2017-Mar-23 04:29N 35°39' E 139°46'0 0.0
2017-Mar-23 03:33N 35°39' E 139°46'0 0.0
2017-Mar-23 02:33N 35°39' E 139°46'0 0.0
2017-Mar-23 01:33N 35°39' E 139°46'0 0.0
2017-Mar-23 00:33N 35°39' E 139°46'0 0.0
2017-Mar-22 23:33N 35°39' E 139°46'0 0.0
2017-Mar-22 22:33N 35°39' E 139°46'0 0.0
2017-Mar-22 21:25N 35°39' E 139°46'0 0.0
2017-Mar-22 20:33N 35°39' E 139°46'0 0.0
2017-Mar-22 19:33N 35°39' E 139°46'0 0.0
2017-Mar-22 18:33N 35°39' E 139°46'0 0.0
2017-Mar-22 17:33N 35°39' E 139°46'0 0.0
2017-Mar-22 16:33N 35°39' E 139°46'0 0.0
2017-Mar-22 15:33N 35°39' E 139°46'0 0.0
2017-Mar-22 14:33N 35°39' E 139°46'0 0.0
2017-Mar-22 13:11N 35°39' E 139°46'0 0.0
2017-Mar-22 12:06N 35°39' E 139°46'0 0.0
2017-Mar-22 11:04N 35°39' E 139°46'0 0.0
2017-Mar-22 10:32N 35°39' E 139°46'3 2.6
2017-Mar-22 09:33N 35°36' E 139°46'2 2.1
2017-Mar-22 08:33N 35°35' E 139°48'1 1.4
2017-Mar-22 07:33N 35°36' E 139°47'1 0.6
2017-Mar-22 06:33N 35°36' E 139°46'0 0.3
2017-Mar-22 05:33N 35°36' E 139°46'2 2.3
2017-Mar-22 04:30N 35°39' E 139°46'0 0.0
2017-Mar-22 03:25N 35°39' E 139°46'0 0.0
2017-Mar-22 02:21N 35°39' E 139°46'0 0.0
2017-Mar-22 01:09N 35°39' E 139°46'0 0.0
2017-Mar-22 00:33N 35°39' E 139°46'0 0.0
2017-Mar-21 23:33N 35°39' E 139°46'2 2.3
2017-Mar-21 22:33N 35°37' E 139°46'3 3.0
2017-Mar-21 21:34N 35°34' E 139°48'3 2.9
2017-Mar-21 20:33N 35°37' E 139°46'1 1.2
2017-Mar-21 19:34N 35°36' E 139°47'3 0.3
2017-Mar-21 10:24N 35°39' E 139°46'0 0.0
2017-Mar-21 09:32N 35°39' E 139°46'0 0.0
2017-Mar-21 08:28N 35°39' E 139°46'0 0.0
2017-Mar-21 07:20N 35°39' E 139°46'0 0.0
2017-Mar-21 06:33N 35°39' E 139°46'0 0.0
2017-Mar-21 05:23N 35°39' E 139°46'2 3.0
2017-Mar-21 04:33N 35°36' E 139°46'3 3.0
2017-Mar-21 03:33N 35°34' E 139°49'5 3.9
2017-Mar-21 02:14N 35°39' E 139°46'0 0.0
2017-Mar-21 01:33N 35°39' E 139°46'0 0.0
2017-Mar-21 00:33N 35°39' E 139°46'0 0.0
2017-Mar-20 23:25N 35°39' E 139°46'0 0.0
2017-Mar-20 22:31N 35°39' E 139°46'0 0.0
2017-Mar-20 21:33N 35°39' E 139°46'0 0.0
2017-Mar-20 20:33N 35°39' E 139°46'0 0.0
2017-Mar-20 19:32N 35°39' E 139°46'0 0.0
2017-Mar-20 18:33N 35°39' E 139°46'0 0.0
2017-Mar-20 17:33N 35°39' E 139°46'0 0.0
2017-Mar-20 16:33N 35°39' E 139°46'0 0.0
2017-Mar-20 15:33N 35°39' E 139°46'0 0.0
2017-Mar-20 14:33N 35°39' E 139°46'0 0.0
2017-Mar-20 13:33N 35°39' E 139°46'0 0.0
2017-Mar-20 12:33N 35°39' E 139°46'0 0.0
2017-Mar-20 11:33N 35°39' E 139°46'3 3.2
2017-Mar-20 10:33N 35°36' E 139°47'1 1.5
2017-Mar-20 09:33N 35°35' E 139°48'2 2.4
2017-Mar-20 08:34N 35°36' E 139°46'2 2.3
2017-Mar-20 07:30N 35°39' E 139°46'0 0.0
2017-Mar-20 06:33N 35°39' E 139°46'0 0.0
2017-Mar-20 05:31N 35°39' E 139°46'0 0.0
2017-Mar-20 04:33N 35°39' E 139°46'0 0.0
2017-Mar-20 03:33N 35°39' E 139°46'3 2.7
2017-Mar-20 02:33N 35°36' E 139°46'1 0.9
2017-Mar-20 01:33N 35°35' E 139°47'3 3.5
2017-Mar-20 00:33N 35°39' E 139°46'0 0.0
2017-Mar-19 23:33N 35°39' E 139°46'0 0.0
2017-Mar-19 22:33N 35°39' E 139°46'0 0.0
2017-Mar-19 21:33N 35°39' E 139°46'0 0.0
2017-Mar-19 20:33N 35°39' E 139°46'0 0.0
2017-Mar-19 19:33N 35°39' E 139°46'0 0.0
2017-Mar-19 18:33N 35°39' E 139°46'0 0.0
2017-Mar-19 17:33N 35°39' E 139°46'0 0.0
2017-Mar-19 16:33N 35°39' E 139°46'0 0.0
2017-Mar-19 15:33N 35°39' E 139°46'0 0.0
2017-Mar-19 14:33N 35°39' E 139°46'0 0.0
2017-Mar-19 13:33N 35°39' E 139°46'0 0.0
2017-Mar-19 12:33N 35°39' E 139°46'0 0.0
2017-Mar-19 11:33N 35°39' E 139°46'0 0.0
2017-Mar-19 10:33N 35°39' E 139°46'4 3.5
2017-Mar-19 09:33N 35°36' E 139°47'1 1.5
2017-Mar-19 08:33N 35°34' E 139°48'3 2.9
2017-Mar-19 07:33N 35°37' E 139°46'2 2.2
2017-Mar-19 06:32N 35°39' E 139°46'0 0.0
2017-Mar-19 05:32N 35°39' E 139°46'0 0.0
2017-Mar-19 04:32N 35°39' E 139°46'0 0.0
2017-Mar-19 03:33N 35°39' E 139°46'0 0.0
2017-Mar-19 02:33N 35°39' E 139°46'0 0.0
2017-Mar-19 01:32N 35°39' E 139°46'0 0.0
2017-Mar-19 00:33N 35°39' E 139°46'0 0.0
2017-Mar-18 23:33N 35°39' E 139°46'3 2.7
2017-Mar-18 22:33N 35°36' E 139°46'1 0.9
2017-Mar-18 21:33N 35°36' E 139°47'3 3.4
2017-Mar-18 20:33N 35°39' E 139°46'0 0.0
2017-Mar-18 19:33N 35°39' E 139°46'0 0.0
2017-Mar-18 18:33N 35°39' E 139°46'0 0.0
2017-Mar-18 17:30N 35°39' E 139°46'0 0.0
2017-Mar-18 15:31N 35°39' E 139°46'0 0.0
2017-Mar-18 13:32N 35°39' E 139°46'0 0.0
2017-Mar-18 12:30N 35°39' E 139°46'0 0.0
2017-Mar-18 11:31N 35°39' E 139°46'0 0.0
2017-Mar-18 10:10N 35°39' E 139°46'2 3.3
2017-Mar-18 09:33N 35°37' E 139°46'3 3.3
2017-Mar-18 08:33N 35°34' E 139°49'2 2.1
2017-Mar-18 07:33N 35°36' E 139°47'3 1.3
2017-Mar-18 05:06N 35°39' E 139°46'0 0.0
2017-Mar-18 03:26N 35°39' E 139°46'0 0.0
2017-Mar-18 02:29N 35°39' E 139°46'0 0.0
2017-Mar-18 01:18N 35°39' E 139°46'0 0.0
2017-Mar-18 00:27N 35°39' E 139°46'0 0.0
2017-Mar-17 23:30N 35°39' E 139°46'0 0.0
2017-Mar-17 22:33N 35°39' E 139°46'0 0.0
2017-Mar-17 21:33N 35°39' E 139°46'0 0.0
2017-Mar-17 20:31N 35°39' E 139°46'0 0.0
2017-Mar-17 19:26N 35°39' E 139°46'0 0.0
2017-Mar-17 18:32N 35°39' E 139°46'0 0.0
2017-Mar-17 17:32N 35°39' E 139°46'0 0.0
2017-Mar-17 16:33N 35°39' E 139°46'0 0.0
2017-Mar-17 15:30N 35°39' E 139°46'0 0.0
2017-Mar-17 14:11N 35°39' E 139°46'0 0.0
2017-Mar-17 13:31N 35°39' E 139°46'0 0.0
2017-Mar-17 12:33N 35°39' E 139°46'0 0.0
2017-Mar-17 11:29N 35°39' E 139°46'2 2.4
2017-Mar-17 10:33N 35°37' E 139°46'2 0.7
2017-Mar-17 08:20N 35°38' E 139°46'2 2.2
2017-Mar-17 07:33N 35°36' E 139°46'2 1.1
2017-Mar-17 05:21N 35°39' E 139°46'0 0.0
2017-Mar-17 04:33N 35°39' E 139°46'0 0.0
2017-Mar-17 03:33N 35°39' E 139°46'2 2.3
2017-Mar-17 02:33N 35°37' E 139°47'1 0.5
2017-Mar-17 01:33N 35°36' E 139°46'3 2.4
2017-Mar-17 00:24N 35°39' E 139°46'0 0.0
2017-Mar-16 23:33N 35°39' E 139°46'0 0.0
2017-Mar-16 22:31N 35°39' E 139°46'0 0.0
2017-Mar-16 21:30N 35°39' E 139°46'0 0.0
2017-Mar-16 18:33N 35°39' E 139°46'0 0.0
2017-Mar-16 17:31N 35°39' E 139°46'0 0.0
2017-Mar-16 16:33N 35°39' E 139°46'0 0.0
2017-Mar-16 15:33N 35°39' E 139°46'0 0.0
2017-Mar-16 14:30N 35°39' E 139°46'0 0.0
2017-Mar-16 13:32N 35°39' E 139°46'0 0.0
2017-Mar-16 12:33N 35°39' E 139°46'0 0.0
2017-Mar-16 11:33N 35°39' E 139°46'0 0.0
2017-Mar-16 10:33N 35°39' E 139°46'0 0.0
2017-Mar-16 09:33N 35°39' E 139°46'0 0.0
2017-Mar-16 08:33N 35°39' E 139°46'0 0.0
2017-Mar-16 07:33N 35°39' E 139°46'0 0.0
2017-Mar-16 06:33N 35°39' E 139°46'0 0.0
2017-Mar-16 05:33N 35°39' E 139°46'0 0.0
2017-Mar-16 04:29N 35°39' E 139°46'0 0.0
2017-Mar-16 03:30N 35°39' E 139°46'0 0.0
2017-Mar-16 02:28N 35°39' E 139°46'0 0.0
2017-Mar-16 01:33N 35°39' E 139°46'0 0.0
2017-Mar-16 00:33N 35°39' E 139°46'2 2.4
2017-Mar-15 23:33N 35°37' E 139°47'1 0.5
2017-Mar-15 22:33N 35°36' E 139°47'3 2.9
2017-Mar-15 21:33N 35°39' E 139°46'0 0.0
2017-Mar-15 20:33N 35°39' E 139°46'0 0.0
2017-Mar-15 19:33N 35°39' E 139°46'0 0.0
2017-Mar-15 18:33N 35°39' E 139°46'0 0.0
2017-Mar-15 17:33N 35°39' E 139°46'0 0.0
2017-Mar-15 16:33N 35°39' E 139°46'0 0.0
2017-Mar-15 15:33N 35°39' E 139°46'0 0.0
2017-Mar-15 11:32N 35°39' E 139°46'0 0.0
2017-Mar-15 10:33N 35°39' E 139°46'0 0.3
2017-Mar-15 09:33N 35°39' E 139°46'1 1.3
2017-Mar-15 08:33N 35°37' E 139°46'2 1.6
2017-Mar-15 07:33N 35°39' E 139°46'0 0.0
2017-Mar-15 06:33N 35°39' E 139°46'0 0.0
2017-Mar-15 05:33N 35°39' E 139°46'0 0.0
2017-Mar-15 04:33N 35°39' E 139°46'0 0.0
2017-Mar-15 03:33N 35°39' E 139°46'0 0.0
2017-Mar-15 02:33N 35°39' E 139°46'4 4.0
2017-Mar-15 01:33N 35°35' E 139°47'4 3.9
2017-Mar-15 00:33N 35°39' E 139°46'0 0.0
2017-Mar-14 23:33N 35°39' E 139°46'0 0.0
2017-Mar-14 22:33N 35°39' E 139°46'0 0.0
2017-Mar-14 21:33N 35°39' E 139°46'0 0.0
2017-Mar-14 20:33N 35°39' E 139°46'0 0.0
2017-Mar-14 19:33N 35°39' E 139°46'0 0.0
2017-Mar-14 18:33N 35°39' E 139°46'0 0.1
2017-Mar-14 17:33N 35°39' E 139°46'0 0.1
2017-Mar-14 16:33N 35°39' E 139°46'0 0.0
2017-Mar-14 15:33N 35°39' E 139°46'0 0.0
2017-Mar-14 14:33N 35°39' E 139°46'0 0.0
2017-Mar-14 13:33N 35°39' E 139°46'0 0.0
2017-Mar-14 12:33N 35°39' E 139°46'0 0.0
2017-Mar-14 11:33N 35°39' E 139°46'0 0.0
2017-Mar-14 10:33N 35°39' E 139°46'1 0.8
2017-Mar-14 09:33N 35°38' E 139°46'3 2.5
2017-Mar-14 08:33N 35°36' E 139°47'2 1.9
2017-Mar-14 07:33N 35°37' E 139°46'1 1.4
2017-Mar-14 06:33N 35°39' E 139°46'1 0.6
2017-Mar-14 05:33N 35°38' E 139°46'0 0.0
2017-Mar-14 04:33N 35°38' E 139°46'0 0.0
2017-Mar-14 03:33N 35°38' E 139°46'0 0.0
2017-Mar-14 02:33N 35°38' E 139°46'0 0.0
2017-Mar-14 01:32N 35°38' E 139°46'0 0.0
2017-Mar-14 00:33N 35°38' E 139°46'0 0.0
2017-Mar-13 23:33N 35°38' E 139°46'2 1.6
2017-Mar-13 22:33N 35°37' E 139°46'2 2.4
2017-Mar-13 21:33N 35°35' E 139°48'4 4.4
2017-Mar-13 20:33N 35°39' E 139°46'0 0.0
2017-Mar-13 19:33N 35°39' E 139°46'  

Dump ship's entire track history